Time;durP1;ratioP1;P1;durP2;ratioP2;P2;SDS_P1;SDS_P2;PMS_P1;PMS_P2;Temp;Humidity;BMP_temperature;BMP_pressure;BME280_temperature;BME280_humidity;BME280_pressure;Samples;Min_cycle;Max_cycle;Signal;HPM_P1;HPM_P2
2022/06/05 00:01:44;;;;;;;5.63;3.00;;;17.10;90.90;;;;;;5015201;28;20041;-76
2022/06/05 00:04:27;;;;;;;5.32;3.13;;;17.00;90.90;;;;;;5015204;28;20029;-76
2022/06/05 00:07:12;;;;;;;4.70;2.92;;;17.00;90.90;;;;;;5014322;28;20022;-77
2022/06/05 00:10:09;;;;;;;5.00;3.00;;;17.00;90.90;;;;;;5014772;28;20014;-76
2022/06/05 00:12:45;;;;;;;5.57;3.08;;;17.00;91.00;;;;;;5013027;28;20022;-76
2022/06/05 00:15:10;;;;;;;7.22;2.83;;;16.90;91.00;;;;;;5014778;28;20030;-76
2022/06/05 00:17:36;;;;;;;5.45;3.20;;;16.90;91.10;;;;;;5014700;28;20497;-76
2022/06/05 00:20:05;;;;;;;6.25;3.42;;;17.00;91.10;;;;;;5014341;28;20025;-76
2022/06/05 00:22:30;;;;;;;5.53;2.80;;;16.90;91.10;;;;;;5014535;28;20084;-76
2022/06/05 00:24:56;;;;;;;5.05;3.25;;;16.90;91.10;;;;;;5014287;28;20029;-76
2022/06/05 00:27:33;;;;;;;5.13;2.95;;;16.90;91.20;;;;;;5013163;28;20049;-76
2022/06/05 00:30:10;;;;;;;5.70;3.30;;;16.90;91.20;;;;;;5014096;28;20049;-75
2022/06/05 00:32:43;;;;;;;4.38;2.92;;;16.90;91.20;;;;;;5014511;28;20113;-76
2022/06/05 00:35:15;;;;;;;5.72;3.10;;;16.90;91.20;;;;;;5013411;28;20077;-75
2022/06/05 00:37:51;;;;;;;6.47;3.38;;;16.90;91.20;;;;;;5014298;28;20028;-76
2022/06/05 00:41:01;;;;;;;6.32;3.40;;;16.90;91.20;;;;;;5003453;28;20030;-75
2022/06/05 00:43:27;;;;;;;5.65;3.05;;;16.90;91.20;;;;;;5005755;28;20037;-76
2022/06/05 00:45:56;;;;;;;4.57;3.00;;;16.90;91.20;;;;;;5013664;28;20506;-76
2022/06/05 00:48:22;;;;;;;5.43;3.17;;;16.90;91.20;;;;;;5013607;28;20515;-76
2022/06/05 00:50:50;;;;;;;5.20;3.05;;;16.90;91.10;;;;;;5013572;28;20060;-77
2022/06/05 00:53:16;;;;;;;4.32;2.90;;;16.90;91.00;;;;;;5004142;28;20531;-76
2022/06/05 00:55:45;;;;;;;5.40;3.10;;;16.90;90.90;;;;;;4998165;28;20033;-76
2022/06/05 00:58:12;;;;;;;5.13;2.80;;;17.00;90.90;;;;;;5012681;28;20022;-77
2022/06/05 01:00:42;;;;;;;5.15;2.90;;;17.00;90.90;;;;;;5013613;28;20449;-76
2022/06/05 01:03:11;;;;;;;6.07;2.97;;;17.00;90.90;;;;;;5012359;28;20068;-76
2022/06/05 01:05:37;;;;;;;4.55;2.83;;;17.00;90.80;;;;;;5013650;28;20380;-76
2022/06/05 01:08:03;;;;;;;5.40;3.00;;;17.00;90.90;;;;;;5013223;28;20538;-77
2022/06/05 01:11:05;;;;;;;5.05;2.97;;;16.90;90.90;;;;;;5013537;28;20505;-77
2022/06/05 01:13:41;;;;;;;5.93;3.10;;;16.90;90.90;;;;;;4976385;28;20033;-76
2022/06/05 01:16:24;;;;;;;4.47;2.70;;;16.90;91.00;;;;;;5012197;28;20025;-76
2022/06/05 01:19:02;;;;;;;5.80;3.15;;;16.90;91.00;;;;;;5011399;28;20030;-76
2022/06/05 01:22:05;;;;;;;6.35;3.15;;;16.90;91.00;;;;;;5013677;28;20033;-77
2022/06/05 01:25:08;;;;;;;4.25;2.80;;;16.90;91.10;;;;;;5012917;28;20405;-77
2022/06/05 01:27:39;;;;;;;5.47;3.38;;;16.90;91.10;;;;;;4999708;28;20033;-76
2022/06/05 01:30:18;;;;;;;5.32;3.05;;;16.90;91.10;;;;;;5012474;28;20022;-76
2022/06/05 01:33:01;;;;;;;4.50;2.80;;;16.90;91.10;;;;;;5012038;28;20017;-77
2022/06/05 01:35:40;;;;;;;4.82;2.80;;;16.80;91.10;;;;;;4993875;28;20030;-76
2022/06/05 01:38:36;;;;;;;5.82;2.97;;;16.80;91.10;;;;;;4992550;28;20058;-76
2022/06/05 01:41:13;;;;;;;4.72;3.00;;;16.90;91.20;;;;;;4991545;28;20035;-76
2022/06/05 01:43:45;;;;;;;5.13;3.10;;;16.90;91.20;;;;;;4995673;28;20057;-76
2022/06/05 01:46:18;;;;;;;4.93;3.20;;;16.90;91.10;;;;;;5011363;28;20022;-77
2022/06/05 01:49:09;;;;;;;5.78;3.35;;;16.90;91.20;;;;;;5011656;28;20033;-76
2022/06/05 01:51:52;;;;;;;5.53;3.10;;;16.90;91.10;;;;;;5011525;28;20053;-76
2022/06/05 01:54:26;;;;;;;4.10;2.70;;;16.90;91.10;;;;;;5013307;28;20442;-75
2022/06/05 01:56:55;;;;;;;5.22;3.08;;;16.90;91.00;;;;;;5011732;28;20026;-76
2022/06/05 01:59:45;;;;;;;4.25;2.70;;;16.90;90.90;;;;;;5012482;28;20030;-76
2022/06/05 02:02:15;;;;;;;4.72;2.83;;;17.00;90.90;;;;;;5012850;28;20030;-76
2022/06/05 02:04:46;;;;;;;4.75;3.00;;;16.90;90.80;;;;;;4993131;28;20034;-76
2022/06/05 02:07:28;;;;;;;4.88;2.92;;;17.00;90.80;;;;;;4993148;28;20019;-76
2022/06/05 02:10:07;;;;;;;5.60;2.92;;;16.90;90.80;;;;;;4992704;28;20115;-76
2022/06/05 02:12:34;;;;;;;5.22;2.97;;;17.00;90.90;;;;;;4991812;28;20435;-76
2022/06/05 02:15:01;;;;;;;5.65;2.83;;;16.90;90.90;;;;;;4992975;28;20476;-76
2022/06/05 02:17:29;;;;;;;4.97;3.03;;;16.90;90.90;;;;;;4992945;28;20399;-76
2022/06/05 02:19:54;;;;;;;4.15;2.67;;;16.90;90.90;;;;;;4992635;28;20019;-76
2022/06/05 02:22:26;;;;;;;4.55;2.70;;;16.90;91.00;;;;;;4994230;28;20037;-77
2022/06/05 02:24:53;;;;;;;4.15;2.80;;;16.80;91.00;;;;;;5005619;28;20029;-76
2022/06/05 02:27:24;;;;;;;4.60;2.70;;;16.90;91.10;;;;;;5009574;28;20030;-76
2022/06/05 02:29:51;;;;;;;4.97;2.90;;;16.80;91.00;;;;;;5011859;28;20441;-75
2022/06/05 02:32:44;;;;;;;5.32;3.00;;;16.80;91.10;;;;;;5011783;28;20450;-76
2022/06/05 02:35:33;;;;;;;4.95;2.92;;;16.90;91.10;;;;;;5010257;28;20030;-76
2022/06/05 02:38:23;;;;;;;4.80;2.80;;;16.90;91.10;;;;;;5011090;28;20018;-76
2022/06/05 02:41:11;;;;;;;5.75;2.80;;;16.90;91.10;;;;;;5010639;28;20491;-77
2022/06/05 02:46:57;;;;;;;4.93;2.88;;;16.80;91.10;;;;;;4999547;28;20033;-76
2022/06/05 02:49:35;;;;;;;5.38;3.10;;;16.80;91.10;;;;;;5011902;28;20037;-76
2022/06/05 02:52:04;;;;;;;5.47;3.22;;;16.80;91.10;;;;;;5010598;28;20026;-76
2022/06/05 02:54:30;;;;;;;4.32;2.70;;;16.80;91.10;;;;;;5013146;28;20154;-77
2022/06/05 02:56:56;;;;;;;5.18;2.75;;;16.80;91.10;;;;;;5011803;28;20045;-76
2022/06/05 02:59:23;;;;;;;4.75;2.90;;;16.90;91.00;;;;;;5010447;28;20041;-76
2022/06/05 03:04:33;;;;;;;5.25;2.60;;;16.90;90.90;;;;;;4992514;28;20033;-77
2022/06/05 03:06:58;;;;;;;4.75;2.90;;;16.90;90.80;;;;;;4991253;28;20483;-76
2022/06/05 03:09:24;;;;;;;3.97;2.35;;;17.00;90.80;;;;;;5008846;28;20022;-77
2022/06/05 03:11:50;;;;;;;3.75;2.47;;;17.00;90.80;;;;;;5012103;28;20418;-77
2022/06/05 03:14:15;;;;;;;5.30;2.80;;;16.90;90.70;;;;;;5010470;28;20025;-76
2022/06/05 03:16:41;;;;;;;5.68;2.75;;;16.90;90.80;;;;;;5012210;28;20029;-76
2022/06/05 03:19:06;;;;;;;4.82;2.97;;;16.90;90.80;;;;;;5011241;28;20268;-76
2022/06/05 03:21:33;;;;;;;4.43;2.40;;;16.90;90.90;;;;;;5011888;28;20037;-76
2022/06/05 03:23:59;;;;;;;4.70;2.70;;;16.90;90.90;;;;;;5010503;28;20165;-77
2022/06/05 03:26:24;;;;;;;5.97;2.97;;;16.90;90.90;;;;;;5010523;28;20499;-76
2022/06/05 03:28:50;;;;;;;4.55;2.60;;;16.80;90.90;;;;;;5010404;28;20121;-76
2022/06/05 03:31:15;;;;;;;4.90;2.80;;;16.90;91.00;;;;;;5010623;28;20030;-76
2022/06/05 03:33:41;;;;;;;3.85;2.47;;;16.90;91.00;;;;;;5011727;28;20049;-76
2022/06/05 03:36:12;;;;;;;4.38;2.58;;;16.80;91.00;;;;;;5010552;28;20446;-76
2022/06/05 03:38:38;;;;;;;;;;;16.80;91.00;;;;;;5026428;28;20637;-77
2022/06/05 03:41:04;;;;;;;5.32;2.80;;;16.80;91.00;;;;;;5010256;28;19909;-76
2022/06/05 03:43:31;;;;;;;4.50;3.10;;;16.80;91.00;;;;;;5013586;28;20058;-76
2022/06/05 03:46:04;;;;;;;4.55;2.75;;;16.80;91.00;;;;;;5014210;28;20033;-76
2022/06/05 03:48:29;;;;;;;4.88;2.80;;;16.80;91.00;;;;;;5014920;28;20030;-74
2022/06/05 03:50:55;;;;;;;4.18;2.90;;;16.80;91.00;;;;;;5014704;28;20032;-76
2022/06/05 03:53:20;;;;;;;5.10;2.75;;;16.80;91.00;;;;;;5014626;28;20680;-77
2022/06/05 03:55:45;;;;;;;4.30;2.72;;;16.80;91.00;;;;;;5013721;28;20029;-76
2022/06/05 03:58:11;;;;;;;4.43;2.72;;;16.80;91.20;;;;;;5013319;28;20053;-76
2022/06/05 04:00:36;;;;;;;4.63;2.88;;;16.80;91.00;;;;;;5014053;28;20036;-77
2022/06/05 04:03:02;;;;;;;4.22;2.70;;;16.90;91.00;;;;;;5013275;28;20046;-77
2022/06/05 04:05:28;;;;;;;4.82;2.97;;;16.90;90.90;;;;;;5013815;28;20022;-77
2022/06/05 04:07:53;;;;;;;4.68;2.60;;;16.90;90.80;;;;;;5014831;28;20120;-77
2022/06/05 04:10:19;;;;;;;4.97;2.90;;;16.90;90.70;;;;;;5014419;28;20026;-77
2022/06/05 04:12:46;;;;;;;3.92;2.40;;;17.00;90.70;;;;;;5013497;28;20018;-77
2022/06/05 04:15:12;;;;;;;4.85;2.97;;;17.00;90.70;;;;;;5014531;28;20048;-77
2022/06/05 04:17:38;;;;;;;5.50;3.00;;;16.90;90.60;;;;;;5013702;28;20025;-77
2022/06/05 04:20:05;;;;;;;4.95;2.80;;;17.00;90.70;;;;;;5014072;28;20382;-77
2022/06/05 04:22:33;;;;;;;5.20;2.90;;;16.90;90.70;;;;;;5012985;28;20026;-76
2022/06/05 04:24:59;;;;;;;4.13;2.65;;;16.90;90.70;;;;;;5013016;28;20482;-77
2022/06/05 04:27:25;;;;;;;4.25;2.58;;;16.90;90.80;;;;;;5014209;28;20018;-76
2022/06/05 04:29:50;;;;;;;4.53;2.80;;;16.90;90.80;;;;;;5013003;28;20856;-76
2022/06/05 04:32:15;;;;;;;5.13;2.63;;;16.90;90.80;;;;;;4994985;28;20026;-76
2022/06/05 04:34:41;;;;;;;3.97;2.58;;;16.90;90.90;;;;;;4994956;28;20545;-76
2022/06/05 04:37:06;;;;;;;4.60;2.70;;;16.80;90.90;;;;;;4994856;28;20031;-76
2022/06/05 04:39:32;;;;;;;5.07;2.90;;;16.80;90.90;;;;;;5011395;28;20490;-77
2022/06/05 04:41:57;;;;;;;4.82;2.60;;;16.90;90.90;;;;;;5014399;28;20026;-77
2022/06/05 04:44:23;;;;;;;4.15;2.65;;;16.90;90.90;;;;;;5013309;28;20044;-77
2022/06/05 04:46:48;;;;;;;4.88;2.78;;;16.80;90.90;;;;;;5014290;28;20093;-77
2022/06/05 04:49:14;;;;;;;5.18;2.92;;;16.90;90.90;;;;;;5012669;28;20014;-77
2022/06/05 04:51:41;;;;;;;4.93;2.80;;;16.80;90.90;;;;;;5012800;28;20110;-77
2022/06/05 04:54:08;;;;;;;4.47;2.60;;;16.80;90.90;;;;;;5013837;28;20022;-77
2022/06/05 04:56:34;;;;;;;4.22;2.60;;;16.80;90.90;;;;;;5012760;28;20022;-75
2022/06/05 04:59:01;;;;;;;4.93;2.50;;;16.80;90.90;;;;;;5013641;28;20025;-77
2022/06/05 05:01:31;;;;;;;4.60;2.70;;;16.90;90.90;;;;;;5012684;28;20121;-77
2022/06/05 05:04:00;;;;;;;4.87;2.70;;;16.90;90.90;;;;;;5013902;28;20018;-77
2022/06/05 05:06:27;;;;;;;4.50;2.47;;;16.90;90.80;;;;;;5013013;28;20052;-77
2022/06/05 05:08:53;;;;;;;4.57;2.83;;;16.90;90.80;;;;;;5012491;28;20478;-76
2022/06/05 05:11:20;;;;;;;4.10;2.75;;;16.90;90.70;;;;;;5013477;28;20052;-76
2022/06/05 05:13:45;;;;;;;3.67;2.33;;;16.90;90.60;;;;;;5013597;28;20026;-76
2022/06/05 05:16:11;;;;;;;4.20;2.47;;;17.00;90.80;;;;;;5012207;28;20025;-76
2022/06/05 05:18:38;;;;;;;4.15;2.58;;;17.00;90.50;;;;;;5012274;28;20095;-76
2022/06/05 05:21:10;;;;;;;4.00;2.38;;;17.00;90.50;;;;;;5011817;28;20030;-76
2022/06/05 05:23:36;;;;;;;4.35;2.72;;;17.00;90.50;;;;;;5012536;28;20363;-75
2022/06/05 05:26:24;;;;;;;4.72;2.90;;;17.00;90.50;;;;;;5011909;28;20022;-76
2022/06/05 05:28:50;;;;;;;4.47;2.65;;;17.00;90.60;;;;;;4992484;28;20044;-76
2022/06/05 05:31:20;;;;;;;4.28;2.50;;;16.90;90.60;;;;;;5008620;28;20053;-76
2022/06/05 05:33:48;;;;;;;3.92;2.58;;;17.00;90.70;;;;;;5012724;28;20042;-76
2022/06/05 05:36:13;;;;;;;3.97;2.50;;;17.00;90.70;;;;;;5013150;28;20010;-76
2022/06/05 05:42:04;;;;;;;4.72;2.75;;;17.00;90.70;;;;;;5012505;28;20022;-76
2022/06/05 05:42:06;;;;;;;4.28;2.67;;;16.90;90.70;;;;;;5012841;28;20026;-76
2022/06/05 05:44:13;;;;;;;3.78;2.40;;;16.90;90.70;;;;;;4991643;28;20034;-76
2022/06/05 05:46:40;;;;;;;4.60;2.70;;;17.00;90.70;;;;;;5012971;28;20378;-76
2022/06/05 05:49:05;;;;;;;4.32;2.72;;;16.90;90.70;;;;;;5011444;28;20021;-75
2022/06/05 05:51:31;;;;;;;4.70;2.72;;;16.90;90.70;;;;;;5012747;28;20497;-76
2022/06/05 05:53:56;;;;;;;4.07;2.65;;;16.90;90.70;;;;;;5011912;28;20042;-76
2022/06/05 05:56:22;;;;;;;3.67;2.53;;;16.90;90.70;;;;;;5012856;28;20030;-76
2022/06/05 05:58:48;;;;;;;4.88;3.03;;;17.00;90.70;;;;;;5012732;28;20156;-76
2022/06/05 06:01:14;;;;;;;4.40;2.65;;;16.90;90.60;;;;;;5012507;28;20044;-76
2022/06/05 06:03:39;;;;;;;4.28;2.70;;;17.00;90.60;;;;;;5011247;28;20065;-77
2022/06/05 06:06:05;;;;;;;4.97;2.58;;;16.90;90.60;;;;;;5010903;28;20509;-77
2022/06/05 06:08:31;;;;;;;3.95;2.40;;;16.90;90.60;;;;;;5012549;28;20619;-76
2022/06/05 06:10:56;;;;;;;4.05;2.58;;;17.00;90.50;;;;;;5010771;28;20032;-77
2022/06/05 06:13:22;;;;;;;4.07;2.50;;;17.00;90.50;;;;;;5011733;28;20037;-77
2022/06/05 06:15:49;;;;;;;4.22;2.55;;;17.00;90.40;;;;;;5012848;28;20406;-77
2022/06/05 06:18:15;;;;;;;4.65;2.67;;;17.10;90.30;;;;;;5011418;28;20030;-77
2022/06/05 06:20:40;;;;;;;4.70;2.35;;;17.10;90.20;;;;;;5010557;28;20470;-77
2022/06/05 06:23:06;;;;;;;4.70;2.75;;;17.10;90.20;;;;;;4992882;28;20037;-76
2022/06/05 06:25:31;;;;;;;4.07;2.65;;;17.20;90.20;;;;;;5006498;28;20026;-77
2022/06/05 06:27:57;;;;;;;4.10;2.60;;;17.20;90.10;;;;;;5012128;28;20450;-77
2022/06/05 06:30:22;;;;;;;4.80;2.63;;;17.10;90.20;;;;;;5011876;28;20029;-76
2022/06/05 06:32:48;;;;;;;3.80;2.53;;;17.10;90.20;;;;;;5012225;28;20109;-76
2022/06/05 06:35:13;;;;;;;4.40;2.80;;;17.10;90.20;;;;;;5011984;28;20373;-76
2022/06/05 06:37:39;;;;;;;4.10;2.47;;;17.10;90.20;;;;;;5012144;28;20048;-76
2022/06/05 06:40:05;;;;;;;3.97;2.47;;;17.10;90.20;;;;;;5011962;28;20029;-76
2022/06/05 06:42:30;;;;;;;3.88;2.50;;;17.10;90.20;;;;;;5002531;28;20037;-73
2022/06/05 06:44:56;;;;;;;4.68;2.60;;;17.10;90.20;;;;;;5011850;28;20030;-76
2022/06/05 06:47:23;;;;;;;3.95;2.45;;;17.10;90.30;;;;;;5010911;28;20048;-77
2022/06/05 06:49:48;;;;;;;4.63;2.88;;;17.10;90.20;;;;;;5011006;28;20402;-75
2022/06/05 06:52:14;;;;;;;3.97;2.58;;;17.10;90.20;;;;;;5011174;28;20161;-77
2022/06/05 06:54:40;;;;;;;4.30;2.67;;;17.10;90.10;;;;;;5010297;28;20040;-75
2022/06/05 06:57:07;;;;;;;4.40;2.80;;;17.20;90.20;;;;;;5009934;28;20034;-76
2022/06/05 06:59:32;;;;;;;3.83;2.38;;;17.20;90.10;;;;;;5011553;28;20037;-77
2022/06/05 07:01:58;;;;;;;4.10;2.50;;;17.10;90.10;;;;;;5012575;28;20022;-78
2022/06/05 07:04:23;;;;;;;4.05;2.60;;;17.20;90.10;;;;;;5010940;28;20088;-77
2022/06/05 07:06:49;;;;;;;4.15;2.72;;;17.10;90.10;;;;;;5011837;28;20021;-77
2022/06/05 07:09:15;;;;;;;4.55;2.42;;;17.10;90.10;;;;;;5011663;28;20034;-78
2022/06/05 07:11:41;;;;;;;4.20;2.60;;;17.20;90.10;;;;;;5010760;28;20445;-78
2022/06/05 07:14:08;;;;;;;3.85;2.42;;;17.20;90.10;;;;;;5011101;28;20033;-78
2022/06/05 07:16:34;;;;;;;4.13;2.50;;;17.20;90.00;;;;;;5010107;28;20042;-77
2022/06/05 07:19:00;;;;;;;4.80;2.80;;;17.30;89.90;;;;;;5012088;28;20053;-76
2022/06/05 07:21:26;;;;;;;3.95;2.50;;;17.30;89.70;;;;;;4997818;28;20030;-77
2022/06/05 07:23:52;;;;;;;4.53;2.67;;;17.30;89.60;;;;;;5014409;28;20095;-77
2022/06/05 07:26:20;;;;;;;4.20;2.70;;;17.40;89.50;;;;;;5015335;28;20025;-77
2022/06/05 07:28:46;;;;;;;4.82;2.70;;;17.30;89.40;;;;;;5015227;28;20105;-77
2022/06/05 07:31:13;;;;;;;3.80;2.42;;;17.30;89.40;;;;;;5014920;28;20030;-77
2022/06/05 07:33:41;;;;;;;4.57;2.67;;;17.30;89.50;;;;;;5013780;28;20026;-78
2022/06/05 07:36:09;;;;;;;4.00;2.45;;;17.30;89.50;;;;;;5008579;28;20029;-77
2022/06/05 07:38:35;;;;;;;4.22;2.30;;;17.30;89.50;;;;;;5011408;28;20550;-77
2022/06/05 07:41:02;;;;;;;4.35;2.50;;;17.30;89.60;;;;;;5014835;28;20064;-77
2022/06/05 07:43:28;;;;;;;3.85;2.50;;;17.30;89.60;;;;;;5014127;28;20026;-77
2022/06/05 07:45:53;;;;;;;3.88;2.40;;;17.30;89.70;;;;;;5011378;28;20032;-78
2022/06/05 07:48:19;;;;;;;6.25;2.80;;;17.30;89.80;;;;;;5016909;28;20475;-78
2022/06/05 07:56:14;;;;;;;4.75;2.53;;;17.30;89.80;;;;;;5014857;28;20103;-75
2022/06/05 07:58:39;;;;;;;4.65;2.67;;;17.30;89.80;;;;;;5011818;28;20060;-77
2022/06/05 08:01:07;;;;;;;4.63;2.72;;;17.30;89.90;;;;;;5006096;28;20109;-74
2022/06/05 08:03:33;;;;;;;3.88;2.50;;;17.30;89.90;;;;;;5007654;28;20033;-76
2022/06/05 08:05:59;;;;;;;4.45;2.80;;;17.30;89.90;;;;;;5004688;28;20018;-78
2022/06/05 08:08:24;;;;;;;4.78;2.80;;;17.30;90.00;;;;;;5012244;28;20026;-78
2022/06/05 08:10:50;;;;;;;4.47;2.67;;;17.20;90.00;;;;;;4997924;28;20026;-78
2022/06/05 08:13:16;;;;;;;4.22;2.60;;;17.30;90.00;;;;;;4996823;28;20105;-78
2022/06/05 08:15:45;;;;;;;4.60;2.63;;;17.30;90.00;;;;;;4999411;28;20025;-77
2022/06/05 08:18:11;;;;;;;4.03;2.70;;;17.30;90.00;;;;;;5006000;28;20033;-78
2022/06/05 08:20:37;;;;;;;3.60;2.30;;;17.30;89.90;;;;;;5009592;28;20049;-78
2022/06/05 08:23:03;;;;;;;3.72;2.38;;;17.30;89.70;;;;;;5004501;28;20026;-77
2022/06/05 08:25:29;;;;;;;7.93;3.10;;;17.40;89.60;;;;;;4999899;28;20077;-78
2022/06/05 08:27:54;;;;;;;4.68;2.78;;;17.40;89.50;;;;;;5004255;28;20022;-78
2022/06/05 08:30:20;;;;;;;4.75;2.88;;;17.40;89.30;;;;;;5008241;28;20030;-78
2022/06/05 08:32:45;;;;;;;4.07;2.55;;;17.40;89.20;;;;;;5014810;28;20029;-78
2022/06/05 08:35:11;;;;;;;4.35;2.80;;;17.40;89.30;;;;;;5005526;28;20022;-78
2022/06/05 08:43:42;;;;;;;4.50;2.80;;;17.40;89.50;;;;;;5016340;28;20062;-78
2022/06/05 08:46:14;;;;;;;4.13;2.60;;;17.40;89.60;;;;;;5014436;28;20025;-78
2022/06/05 08:48:47;;;;;;;7.57;3.03;;;17.40;89.60;;;;;;5014343;28;20179;-78
2022/06/05 08:51:22;;;;;;;4.85;2.70;;;17.40;89.60;;;;;;5016304;28;20113;-78
2022/06/05 08:54:03;;;;;;;4.18;2.60;;;17.30;89.50;;;;;;5014478;28;20036;-79
2022/06/05 08:56:39;;;;;;;4.30;2.72;;;17.40;89.60;;;;;;5016266;28;20030;-79
2022/06/05 08:59:26;;;;;;;6.45;2.95;;;17.40;89.70;;;;;;5015222;28;20033;-78
2022/06/05 09:02:02;;;;;;;4.70;2.88;;;17.40;89.60;;;;;;5015608;28;20034;-78
2022/06/05 09:04:45;;;;;;;3.90;2.70;;;17.40;89.60;;;;;;5015439;28;20037;-79
2022/06/05 09:07:15;;;;;;;4.18;2.55;;;17.40;89.50;;;;;;5017457;28;20025;-78
2022/06/05 09:09:49;;;;;;;4.72;2.70;;;17.50;89.50;;;;;;5016732;28;20026;-78
2022/06/05 09:12:41;;;;;;;5.15;2.97;;;17.40;89.30;;;;;;5007575;28;20026;-79
2022/06/05 09:15:32;;;;;;;4.70;3.00;;;17.50;89.30;;;;;;5007062;28;20026;-79
2022/06/05 09:18:00;;;;;;;4.60;2.80;;;17.50;89.20;;;;;;5015571;28;20034;-79
2022/06/05 09:20:56;;;;;;;6.85;2.75;;;17.50;89.20;;;;;;5017256;28;20022;-79
2022/06/05 09:23:23;;;;;;;5.07;2.78;;;17.60;89.10;;;;;;5011001;28;20036;-79
2022/06/05 09:26:06;;;;;;;4.25;2.72;;;17.60;88.90;;;;;;5011416;28;20018;-79
2022/06/05 09:28:51;;;;;;;4.82;2.85;;;17.60;88.60;;;;;;5007843;28;20022;-78
2022/06/05 09:31:54;;;;;;;4.78;3.00;;;17.70;88.40;;;;;;5007612;28;20045;-79
2022/06/05 09:34:35;;;;;;;4.63;2.90;;;17.70;88.20;;;;;;5015982;28;20075;-79
2022/06/05 09:37:12;;;;;;;5.88;3.10;;;17.70;88.20;;;;;;5012797;28;20076;-78
2022/06/05 09:39:46;;;;;;;5.30;2.83;;;17.70;88.20;;;;;;5013487;28;20057;-79
2022/06/05 09:42:22;;;;;;;6.88;3.20;;;17.70;88.30;;;;;;5018072;28;20034;-79
2022/06/05 09:45:22;;;;;;;5.65;3.10;;;17.70;88.30;;;;;;5016123;28;20026;-79
2022/06/05 09:48:01;;;;;;;6.05;3.15;;;17.70;88.30;;;;;;5016934;28;20117;-79
2022/06/05 09:50:28;;;;;;;7.57;3.00;;;17.70;88.30;;;;;;5015107;28;20480;-78
2022/06/05 09:52:55;;;;;;;6.20;3.13;;;17.70;88.40;;;;;;5013302;28;20407;-75
2022/06/05 09:55:44;;;;;;;6.00;3.10;;;17.70;88.30;;;;;;5012383;28;20018;-75
2022/06/05 09:58:46;;;;;;;6.38;2.92;;;17.80;88.40;;;;;;5014987;28;20026;-79
2022/06/05 10:01:46;;;;;;;4.80;2.95;;;17.80;88.30;;;;;;5015771;28;20112;-79
2022/06/05 10:04:11;;;;;;;5.85;3.17;;;17.80;88.30;;;;;;5015372;28;20537;-79
2022/06/05 10:06:45;;;;;;;5.63;2.85;;;17.80;88.20;;;;;;5014733;28;20025;-79
2022/06/05 10:09:26;;;;;;;6.43;3.00;;;17.80;88.30;;;;;;5014167;28;20026;-79
2022/06/05 10:11:54;;;;;;;5.63;3.25;;;17.80;88.30;;;;;;5014194;28;20049;-78
2022/06/05 10:14:47;;;;;;;5.95;3.15;;;17.80;88.40;;;;;;5012982;28;20036;-77
2022/06/05 10:17:41;;;;;;;6.38;3.40;;;17.80;88.40;;;;;;5012657;28;20617;-79
2022/06/05 10:20:23;;;;;;;5.82;3.15;;;17.80;88.70;;;;;;5012630;28;20061;-79
2022/06/05 10:23:10;;;;;;;4.63;2.83;;;17.70;88.50;;;;;;5014201;28;20490;-78
2022/06/05 10:25:53;;;;;;;6.18;3.05;;;17.80;88.70;;;;;;5014133;28;20057;-79
2022/06/05 10:28:26;;;;;;;5.82;3.60;;;17.70;88.70;;;;;;5012361;28;20053;-79
2022/06/05 10:31:24;;;;;;;5.30;3.22;;;17.80;88.70;;;;;;5013797;28;20030;-78
2022/06/05 10:34:11;;;;;;;5.63;2.92;;;17.70;88.70;;;;;;5010417;28;20048;-79
2022/06/05 10:36:55;;;;;;;7.93;3.17;;;17.70;88.70;;;;;;5014066;28;20026;-78
2022/06/05 10:39:51;;;;;;;4.45;3.13;;;17.80;88.80;;;;;;5012279;28;20109;-79
2022/06/05 10:42:31;;;;;;;6.47;3.22;;;17.70;88.80;;;;;;5014795;28;20038;-77
2022/06/05 10:45:14;;;;;;;5.35;3.80;;;17.70;89.00;;;;;;5013834;28;20029;-79
2022/06/05 10:48:20;;;;;;;4.80;3.20;;;17.60;89.10;;;;;;5012885;28;20033;-78
2022/06/05 10:51:14;;;;;;;5.35;3.30;;;17.60;89.20;;;;;;5005933;28;20022;-78
2022/06/05 10:54:13;;;;;;;4.97;3.35;;;17.60;89.40;;;;;;5013890;28;20026;-77
2022/06/05 10:57:17;;;;;;;5.97;3.40;;;17.60;89.50;;;;;;5014292;28;20034;-79
2022/06/05 10:59:59;;;;;;;5.32;3.38;;;17.50;89.50;;;;;;4958178;28;20036;-77
2022/06/05 11:03:02;;;;;;;5.47;3.38;;;17.60;90.00;;;;;;5009563;28;20062;-78
2022/06/05 11:05:34;;;;;;;6.18;3.53;;;17.50;89.80;;;;;;5013699;28;20030;-79
2022/06/05 11:08:08;;;;;;;;;;;17.50;89.90;;;;;;5001800;28;20026;-79
2022/06/05 11:13:55;;;;;;;5.40;3.33;;;17.50;90.00;;;;;;5004960;28;20037;-78
2022/06/05 11:16:43;;;;;;;5.63;3.63;;;17.50;90.00;;;;;;5013246;28;20566;-79
2022/06/05 11:19:13;;;;;;;5.85;3.53;;;17.50;90.00;;;;;;5012781;28;20034;-79
2022/06/05 11:21:43;;;;;;;5.90;3.50;;;17.50;90.00;;;;;;5015105;28;20561;-77
2022/06/05 11:24:29;;;;;;;5.65;3.90;;;17.50;90.00;;;;;;5012167;28;20033;-77
2022/06/05 11:27:25;;;;;;;7.65;4.05;;;17.50;90.00;;;;;;5010313;28;20490;-74
2022/06/05 11:30:10;;;;;;;6.50;3.42;;;17.60;90.00;;;;;;5013328;28;20108;-79
2022/06/05 11:32:58;;;;;;;6.68;3.80;;;17.50;89.90;;;;;;5014343;28;20026;-80
2022/06/05 11:35:48;;;;;;;5.05;3.30;;;17.60;89.70;;;;;;5013896;28;20102;-79
2022/06/05 11:38:35;;;;;;;6.18;3.60;;;17.60;89.60;;;;;;5013656;28;20105;-79
2022/06/05 11:41:04;;;;;;;6.22;3.63;;;17.60;89.60;;;;;;5009931;28;20108;-74
2022/06/05 11:43:32;;;;;;;5.47;3.47;;;17.60;89.60;;;;;;4992652;28;20070;-76
2022/06/05 11:46:02;;;;;;;6.00;3.60;;;17.50;89.70;;;;;;5001094;28;20053;-79
2022/06/05 11:48:40;;;;;;;7.97;3.75;;;17.50;89.80;;;;;;5012080;28;20100;-79
2022/06/05 11:51:42;;;;;;;5.20;3.60;;;17.50;90.00;;;;;;5013387;28;20052;-78
2022/06/05 11:54:07;;;;;;;6.80;3.90;;;17.50;90.00;;;;;;5012463;28;20538;-78
2022/06/05 11:56:46;;;;;;;5.75;3.75;;;17.50;90.00;;;;;;5013454;28;20115;-79
2022/06/05 11:59:31;;;;;;;7.07;3.90;;;17.50;90.10;;;;;;5012174;28;20057;-79
2022/06/05 12:02:08;;;;;;;5.72;3.72;;;17.40;90.10;;;;;;5011834;28;20526;-78
2022/06/05 12:04:56;;;;;;;6.57;4.05;;;17.40;90.10;;;;;;5016026;28;20037;-80
2022/06/05 12:07:24;;;;;;;6.45;4.38;;;17.40;90.20;;;;;;5015851;28;20018;-78
2022/06/05 12:09:58;;;;;;;6.03;3.92;;;17.50;90.20;;;;;;5015205;28;20075;-78
2022/06/05 12:12:29;;;;;;;6.75;3.75;;;17.40;90.20;;;;;;5015030;28;20045;-78
2022/06/05 12:15:04;;;;;;;;;;;17.40;90.20;;;;;;5016184;28;20030;-78
2022/06/05 12:17:39;;;;;;;6.55;3.80;;;17.40;90.30;;;;;;5015393;28;19996;-78
2022/06/05 12:20:32;;;;;;;6.03;3.80;;;17.50;90.40;;;;;;5016298;28;20053;-78
2022/06/05 12:23:09;;;;;;;7.25;4.00;;;17.40;90.30;;;;;;5016435;28;20029;-79
2022/06/05 12:25:53;;;;;;;6.20;3.47;;;17.40;90.40;;;;;;5014852;28;20084;-78
2022/06/05 12:28:32;;;;;;;6.80;4.05;;;17.40;90.40;;;;;;4998984;28;20553;-78
2022/06/05 12:31:15;;;;;;;5.40;3.92;;;17.40;90.30;;;;;;5014454;28;20026;-78
2022/06/05 12:34:02;;;;;;;6.18;4.10;;;17.50;90.30;;;;;;5014704;28;20030;-78
2022/06/05 12:36:36;;;;;;;7.57;4.07;;;17.50;90.20;;;;;;5015517;28;20113;-78
2022/06/05 12:39:05;;;;;;;6.20;3.88;;;17.50;90.10;;;;;;5015272;28;20038;-77
2022/06/05 12:41:55;;;;;;;5.75;3.80;;;17.50;90.10;;;;;;5014362;28;20030;-78
2022/06/05 12:44:30;;;;;;;6.43;3.90;;;17.50;90.10;;;;;;5014457;28;20026;-78
2022/06/05 12:47:34;;;;;;;6.35;3.90;;;17.50;90.10;;;;;;5014089;28;20061;-78
2022/06/05 12:50:18;;;;;;;6.15;3.70;;;17.50;90.10;;;;;;5013919;28;20018;-78
2022/06/05 12:52:53;;;;;;;6.03;3.75;;;17.40;90.20;;;;;;5014137;28;20077;-78
2022/06/05 12:55:23;;;;;;;6.03;3.88;;;17.40;90.30;;;;;;5016594;28;20030;-79
2022/06/05 12:58:04;;;;;;;6.97;4.20;;;17.40;90.30;;;;;;5016562;28;20105;-79
2022/06/05 13:00:34;;;;;;;;;;;17.40;90.30;;;;;;5016177;28;20444;-78
2022/06/05 13:03:20;;;;;;;5.15;3.67;;;17.40;90.30;;;;;;5009668;28;19948;-79
2022/06/05 13:05:55;;;;;;;6.07;3.83;;;17.40;90.40;;;;;;5008845;28;20097;-78
2022/06/05 13:08:39;;;;;;;5.50;3.95;;;17.40;90.40;;;;;;5006295;28;20398;-74
2022/06/05 13:11:33;;;;;;;6.25;4.22;;;17.40;90.40;;;;;;5010044;28;20033;-78
2022/06/05 13:14:04;;;;;;;6.70;4.13;;;17.40;90.40;;;;;;5011672;28;20026;-78
2022/06/05 13:16:38;;;;;;;5.78;4.22;;;17.40;90.40;;;;;;5013381;28;20026;-78
2022/06/05 13:19:26;;;;;;;5.97;3.97;;;17.40;90.50;;;;;;4995504;28;20092;-78
2022/06/05 13:22:15;;;;;;;5.47;3.90;;;17.40;90.70;;;;;;5006866;28;20455;-78
2022/06/05 13:24:57;;;;;;;6.60;3.97;;;17.30;90.50;;;;;;5007762;28;20410;-74
2022/06/05 13:28:09;;;;;;;6.50;4.30;;;17.40;90.50;;;;;;5012703;28;20096;-78
2022/06/05 13:30:53;;;;;;;6.40;4.05;;;17.40;90.50;;;;;;4951917;28;20061;-79
2022/06/05 13:33:35;;;;;;;5.20;3.75;;;17.40;90.50;;;;;;5005297;28;20399;-78
2022/06/05 13:36:16;;;;;;;5.60;4.20;;;17.40;90.50;;;;;;4992899;28;20050;-78
2022/06/05 13:39:14;;;;;;;6.00;4.18;;;17.40;90.40;;;;;;4994366;28;20014;-78
2022/06/05 13:41:58;;;;;;;5.18;3.88;;;17.50;90.30;;;;;;4995713;28;20029;-79
2022/06/05 13:44:29;;;;;;;6.57;4.28;;;17.50;90.30;;;;;;4998931;28;20499;-78